createdAt,value
2016-12-05T13:19:48.205Z,45
2016-12-05T13:20:58.514Z,55
2016-12-05T13:22:08.824Z,105
2016-12-05T13:23:19.136Z,80
2016-12-05T13:24:44.016Z,50
2016-12-05T13:25:54.329Z,60
2016-12-05T13:27:04.652Z,120
2016-12-05T13:28:14.970Z,120
2016-12-05T13:29:25.285Z,45
2016-12-05T13:30:35.599Z,45
2016-12-05T13:31:46.394Z,40
2016-12-05T13:32:57.186Z,50
2016-12-05T13:34:07.512Z,50
2016-12-05T13:35:17.832Z,45
2016-12-05T13:36:28.363Z,130
2016-12-05T13:37:38.679Z,60
2016-12-05T13:39:04.074Z,50
2016-12-05T13:40:14.393Z,110
2016-12-05T13:41:24.711Z,50
2016-12-05T13:42:35.077Z,115
2016-12-05T13:43:45.391Z,60
2016-12-05T13:44:55.732Z,110
2016-12-05T13:46:06.057Z,120
2016-12-05T13:47:16.375Z,60
2016-12-05T13:48:26.697Z,120
2016-12-05T13:49:37.034Z,120
2016-12-05T13:50:47.362Z,110
2016-12-05T13:51:57.683Z,110
2016-12-05T13:54:32.900Z,120
2016-12-05T13:55:43.224Z,115
2016-12-05T13:56:53.543Z,105
2016-12-05T13:58:03.867Z,110
2016-12-05T13:59:14.184Z,110
2016-12-05T14:00:24.629Z,100
2016-12-05T14:01:35.074Z,75
2016-12-05T14:02:45.512Z,95
2016-12-05T14:03:56.152Z,105
2016-12-05T14:05:06.590Z,105
2016-12-05T14:06:17.133Z,95
2016-12-05T14:07:27.568Z,100
2016-12-05T14:08:38.008Z,95
2016-12-05T14:09:48.450Z,105
2016-12-05T14:10:58.890Z,95
2016-12-05T14:12:09.333Z,95
2016-12-05T14:13:19.782Z,105
2016-12-05T14:14:31.128Z,105
2016-12-05T14:15:41.581Z,40
2016-12-05T14:16:52.032Z,55
2016-12-05T14:18:02.474Z,35
2016-12-05T14:19:27.469Z,110
2016-12-05T14:20:37.912Z,125
2016-12-05T14:21:48.359Z,50
2016-12-05T14:23:13.355Z,105
2016-12-05T14:24:23.796Z,80
2016-12-05T14:25:34.238Z,100
2016-12-05T14:26:44.685Z,100
2016-12-05T14:27:55.132Z,105
2016-12-05T14:29:06.299Z,105
2016-12-05T14:30:16.752Z,75
2016-12-05T14:31:27.204Z,105
2016-12-05T14:32:37.663Z,100
2016-12-05T14:33:48.103Z,100
2016-12-05T14:34:58.552Z,100
2016-12-05T14:36:09.018Z,110
2016-12-05T14:37:19.679Z,110
2016-12-05T14:38:30.138Z,105
2016-12-05T14:42:31.157Z,95
2016-12-05T14:45:06.627Z,105
2016-12-05T14:46:17.119Z,110
2016-12-05T14:47:27.770Z,55
2016-12-05T14:48:39.153Z,50
2016-12-05T14:49:49.632Z,30
2016-12-05T14:51:00.091Z,40
2016-12-05T14:52:10.554Z,75
2016-12-05T14:53:21.032Z,45
2016-12-05T14:54:31.535Z,110
2016-12-05T14:55:42.056Z,115
2016-12-05T14:56:52.530Z,105
2016-12-05T14:58:03.496Z,40
2016-12-05T14:59:14.464Z,35
2016-12-05T15:00:25.130Z,105
2016-12-05T15:01:35.585Z,50
2016-12-05T15:02:46.057Z,45
2016-12-05T15:04:11.064Z,45
2016-12-05T15:07:01.059Z,45
2016-12-05T15:08:12.630Z,45
2016-12-05T15:09:23.111Z,70
2016-12-05T15:10:33.583Z,75
2016-12-05T15:11:44.055Z,105
2016-12-05T15:12:54.527Z,115
2016-12-05T15:14:04.995Z,55
2016-12-05T15:15:15.483Z,110
2016-12-05T15:16:25.948Z,110
2016-12-05T15:17:36.408Z,105
2016-12-05T15:18:47.019Z,40
2016-12-05T15:19:57.645Z,35
2016-12-05T15:21:08.473Z,95
2016-12-05T15:22:19.703Z,45
2016-12-05T15:23:30.263Z,100
2016-12-05T15:24:41.316Z,100
2016-12-05T15:25:51.874Z,45
2016-12-05T15:27:02.426Z,95
2016-12-05T15:28:13.004Z,100
2016-12-05T15:29:23.577Z,100
2016-12-05T15:30:34.157Z,35
2016-12-05T15:31:44.703Z,35
2016-12-05T15:32:55.719Z,45
2016-12-05T15:34:06.284Z,110
2016-12-05T15:35:16.864Z,105
2016-12-05T15:36:27.425Z,60
2016-12-05T15:37:52.711Z,105
2016-12-05T15:39:03.274Z,105
2016-12-05T15:40:13.834Z,95
2016-12-05T15:41:24.427Z,45
2016-12-05T15:44:14.878Z,100
2016-12-05T15:45:39.962Z,95
2016-12-05T15:46:50.563Z,60
2016-12-05T15:48:01.126Z,55
2016-12-05T15:49:11.730Z,55
2016-12-05T15:50:22.306Z,50
2016-12-05T15:51:32.873Z,45
2016-12-05T15:54:08.513Z,35
2016-12-05T15:55:19.060Z,65
2016-12-05T15:56:29.607Z,70
2016-12-05T15:57:40.194Z,65
2016-12-05T15:58:50.763Z,75
2016-12-05T16:00:01.320Z,75
2016-12-05T16:01:12.856Z,75
2016-12-05T16:02:23.438Z,60
2016-12-05T16:03:48.510Z,40
2016-12-05T16:04:59.062Z,50
2016-12-05T16:06:09.629Z,45
2016-12-05T16:07:49.231Z,75
2016-12-05T16:08:59.784Z,55
2016-12-05T16:10:10.551Z,45
2016-12-05T16:11:21.122Z,70
2016-12-05T16:12:31.721Z,65
2016-12-05T16:13:42.309Z,55
2016-12-05T16:15:07.383Z,25
2016-12-05T16:16:17.944Z,30
2016-12-05T16:17:28.504Z,40
2016-12-05T16:18:39.051Z,70
2016-12-05T16:19:50.088Z,70
2016-12-05T16:21:00.631Z,40
2016-12-05T16:22:25.746Z,70
2016-12-05T16:23:36.318Z,35
2016-12-05T16:24:46.892Z,35
2016-12-05T16:25:58.186Z,40
2016-12-05T16:27:09.255Z,65
2016-12-05T16:28:34.337Z,30
2016-12-05T16:29:44.903Z,55
2016-12-05T16:30:55.469Z,55
2016-12-05T16:32:06.042Z,60
2016-12-05T16:33:16.622Z,65
2016-12-05T16:34:27.205Z,40
2016-12-05T16:35:37.840Z,70
2016-12-05T16:36:48.495Z,55
2016-12-05T16:37:59.046Z,70
2016-12-05T16:39:09.628Z,50
2016-12-05T16:40:20.196Z,40
2016-12-05T16:41:30.840Z,35
2016-12-05T16:42:41.509Z,40
2016-12-05T16:43:52.081Z,65
2016-12-05T16:45:02.649Z,65
2016-12-05T16:46:13.225Z,55
2016-12-05T16:47:38.422Z,65
2016-12-05T16:48:48.984Z,70
2016-12-05T16:49:59.548Z,70
2016-12-05T16:52:35.346Z,40
2016-12-05T16:53:45.918Z,40
2016-12-05T16:54:56.474Z,35
2016-12-05T16:56:07.055Z,25
2016-12-05T16:57:17.623Z,35
2016-12-05T16:58:28.577Z,45
2016-12-05T16:59:39.197Z,40
2016-12-05T17:00:49.766Z,55
2016-12-05T17:02:00.335Z,35
2016-12-05T17:03:10.909Z,70
2016-12-05T17:04:21.463Z,65
2016-12-05T17:05:32.053Z,40
2016-12-05T17:06:57.143Z,55
2016-12-05T17:08:07.897Z,40
2016-12-05T17:09:18.654Z,25
2016-12-05T17:10:29.205Z,30
2016-12-05T17:11:40.273Z,30
2016-12-05T17:12:51.343Z,55
2016-12-05T17:14:01.925Z,70
2016-12-05T17:16:37.897Z,70
2016-12-05T17:18:03.991Z,70
2016-12-05T17:19:14.578Z,70
2016-12-05T17:20:25.345Z,55
2016-12-05T17:21:50.429Z,50
2016-12-05T17:23:01.014Z,60
2016-12-05T17:24:11.579Z,65
2016-12-05T17:25:22.249Z,45
2016-12-05T17:26:32.798Z,40
2016-12-05T17:27:43.352Z,35
2016-12-05T17:28:53.903Z,65
2016-12-05T17:30:04.475Z,60
2016-12-05T17:31:29.547Z,45
2016-12-05T17:32:40.102Z,55
2016-12-05T17:33:50.659Z,55
2016-12-05T17:35:01.247Z,65
2016-12-05T17:36:11.918Z,65
2016-12-05T17:37:36.990Z,40
2016-12-05T17:38:47.562Z,70
2016-12-05T17:41:38.458Z,60
2016-12-05T17:42:49.028Z,20
2016-12-05T17:43:59.599Z,20
2016-12-05T17:45:10.187Z,60
2016-12-05T17:46:20.744Z,25
2016-12-05T17:47:46.031Z,60
2016-12-05T17:48:56.804Z,60
2016-12-05T17:50:07.894Z,60
2016-12-05T17:51:18.474Z,55
2016-12-05T17:52:29.027Z,60
2016-12-05T17:53:54.117Z,60
2016-12-05T17:55:19.204Z,65
2016-12-05T17:56:29.963Z,25
2016-12-05T17:57:40.527Z,30
2016-12-05T17:58:51.122Z,30
2016-12-05T18:00:01.695Z,40
2016-12-05T18:01:12.279Z,50
2016-12-05T18:02:23.051Z,40
2016-12-05T18:03:48.344Z,45
2016-12-05T18:04:58.910Z,60
2016-12-05T18:06:09.477Z,70
2016-12-05T18:07:20.244Z,65
2016-12-05T18:09:56.024Z,25
2016-12-05T18:11:06.588Z,20
2016-12-05T18:12:17.368Z,25
2016-12-05T18:13:27.934Z,30
2016-12-05T18:14:38.993Z,70
2016-12-05T18:15:49.557Z,60
2016-12-05T18:17:00.101Z,35
2016-12-05T18:18:10.731Z,45
2016-12-05T18:19:21.221Z,40
2016-12-05T18:20:32.090Z,35
2016-12-05T18:21:42.565Z,30
2016-12-05T18:22:53.036Z,25
2016-12-05T18:24:03.516Z,25
2016-12-05T18:25:14.000Z,25
2016-12-05T18:27:49.524Z,40
2016-12-05T18:29:00.486Z,30
2016-12-05T18:30:10.967Z,65
2016-12-05T18:31:21.427Z,40
2016-12-05T18:32:31.903Z,35
2016-12-05T18:33:42.456Z,25
2016-12-05T18:34:53.106Z,25
2016-12-05T18:36:03.562Z,25
2016-12-05T18:37:14.310Z,30
2016-12-05T18:38:24.766Z,25
2016-12-05T18:39:35.217Z,25
2016-12-05T18:40:45.888Z,30
2016-12-05T18:41:56.355Z,60
2016-12-05T18:43:07.327Z,55
2016-12-05T18:44:46.864Z,55
2016-12-05T18:45:57.318Z,55
2016-12-05T18:47:07.775Z,55
2016-12-05T18:48:18.253Z,50
2016-12-05T18:49:28.737Z,15
2016-12-05T18:50:39.704Z,40
2016-12-05T18:52:04.736Z,50
2016-12-05T18:53:15.212Z,50
2016-12-05T18:54:40.238Z,50
2016-12-05T18:55:50.708Z,50
2016-12-05T18:57:15.703Z,50
2016-12-05T18:59:51.173Z,50
2016-12-05T19:01:01.643Z,20
2016-12-05T19:02:12.212Z,15
2016-12-05T19:03:22.676Z,15
2016-12-05T19:04:33.650Z,15
2016-12-05T19:05:44.121Z,20
2016-12-05T19:06:54.590Z,50
2016-12-05T19:08:05.279Z,55
2016-12-05T19:09:15.740Z,55
2016-12-05T19:10:26.233Z,50
2016-12-05T19:11:36.704Z,50
2016-12-05T19:12:47.066Z,45
2016-12-05T19:13:58.126Z,20
2016-12-05T19:15:08.949Z,10
2016-12-05T19:16:19.310Z,45
2016-12-05T19:17:29.652Z,35
2016-12-05T19:18:39.995Z,10
2016-12-05T19:19:50.336Z,15
2016-12-05T19:21:00.698Z,45
2016-12-05T19:22:11.041Z,25
2016-12-05T19:23:21.385Z,20
2016-12-05T19:24:31.713Z,20
2016-12-05T19:25:42.271Z,15
2016-12-05T19:26:52.652Z,50
2016-12-05T19:28:03.013Z,45
2016-12-05T19:29:13.346Z,45
2016-12-05T19:30:23.688Z,45
2016-12-05T19:31:34.139Z,45
2016-12-05T19:32:44.466Z,10
2016-12-05T19:33:54.818Z,10
2016-12-05T19:35:05.676Z,15
2016-12-05T19:36:16.015Z,40
2016-12-05T19:37:41.023Z,10
2016-12-05T19:38:51.379Z,30
2016-12-05T19:40:01.718Z,35
2016-12-05T19:41:12.110Z,35
2016-12-05T19:42:22.465Z,40
2016-12-05T19:43:32.799Z,40
2016-12-05T19:44:43.133Z,35
2016-12-05T19:45:53.477Z,35
2016-12-05T19:47:03.808Z,30
2016-12-05T19:48:14.152Z,20
2016-12-05T19:49:24.503Z,30
2016-12-05T19:50:34.859Z,30
2016-12-05T19:51:45.187Z,25
2016-12-05T19:52:55.519Z,25
2016-12-05T19:54:05.877Z,25
2016-12-05T19:55:16.224Z,20
2016-12-05T19:56:27.052Z,20
2016-12-05T19:57:37.388Z,20
2016-12-05T19:58:47.731Z,25
2016-12-05T19:59:58.086Z,20
2016-12-05T20:01:08.419Z,20
2016-12-05T20:02:18.749Z,20
2016-12-05T20:03:29.579Z,10
2016-12-05T20:04:39.938Z,20
2016-12-05T20:05:50.260Z,20
2016-12-05T20:07:00.610Z,15
2016-12-05T20:08:10.937Z,15
2016-12-05T20:09:21.295Z,15
2016-12-05T20:10:31.627Z,10
2016-12-05T20:11:41.964Z,5
2016-12-05T20:12:52.315Z,10
2016-12-05T20:14:02.658Z,15
2016-12-05T20:15:13.015Z,5
2016-12-05T20:16:23.362Z,10
2016-12-05T20:17:33.689Z,5
2016-12-05T20:18:44.030Z,10
2016-12-05T20:19:54.360Z,10
2016-12-05T20:21:04.676Z,10
2016-12-05T20:22:14.996Z,10
2016-12-05T20:23:25.311Z,10
2016-12-05T20:24:35.630Z,10
2016-12-05T20:25:46.435Z,10
2016-12-05T20:26:56.751Z,5
2016-12-05T20:28:07.070Z,5
2016-12-05T20:29:17.491Z,5
2016-12-05T20:30:28.290Z,5
2016-12-05T20:31:38.613Z,5
2016-12-05T20:32:49.030Z,5
2016-12-05T20:33:59.443Z,5
2016-12-05T20:35:09.960Z,5
2016-12-05T20:36:20.373Z,5
2016-12-05T20:37:30.816Z,5
2016-12-05T20:38:41.235Z,5
2016-12-05T20:39:51.651Z,5
2016-12-05T20:41:02.264Z,5
2016-12-05T20:42:12.680Z,5
2016-12-05T20:43:23.092Z,5
2016-12-05T20:44:33.508Z,5
2016-12-05T20:45:43.920Z,5
2016-12-05T20:46:54.331Z,5
2016-12-05T20:48:04.741Z,5
2016-12-05T20:49:15.632Z,5
2016-12-05T20:50:26.043Z,5
2016-12-05T20:51:36.456Z,5
2016-12-05T20:52:47.866Z,5
2016-12-05T20:53:58.319Z,5
2016-12-05T20:55:08.738Z,5
2016-12-05T20:56:33.703Z,5
2016-12-05T20:57:44.139Z,5
2016-12-05T20:58:54.547Z,5
2016-12-05T21:00:04.968Z,5
2016-12-05T21:01:15.377Z,5
2016-12-05T21:02:25.784Z,5
2016-12-05T21:03:36.197Z,5
2016-12-05T21:04:46.610Z,5
2016-12-05T21:05:57.013Z,5
2016-12-05T21:07:07.422Z,5
2016-12-05T21:08:17.834Z,5
2016-12-05T21:09:28.926Z,5
2016-12-05T21:10:39.337Z,5
2016-12-05T21:11:49.744Z,0
2016-12-05T21:13:00.157Z,0
2016-12-05T21:14:10.565Z,0
2016-12-05T21:15:21.177Z,0
2016-12-05T21:16:31.585Z,0
2016-12-05T21:17:41.932Z,0
2016-12-05T21:18:52.248Z,0
2016-12-05T21:20:02.571Z,0
2016-12-05T21:21:13.089Z,0
2016-12-05T21:22:23.405Z,0
2016-12-05T21:23:33.726Z,0
2016-12-05T21:24:44.072Z,0
2016-12-05T21:25:54.392Z,0
2016-12-05T21:27:04.910Z,0
2016-12-05T21:28:15.232Z,0
2016-12-05T21:29:25.550Z,0
2016-12-05T21:30:35.866Z,0
2016-12-05T21:31:46.181Z,0
2016-12-05T21:32:56.805Z,0
2016-12-05T21:34:07.240Z,0
2016-12-05T21:35:17.674Z,0
2016-12-05T21:36:28.107Z,0
2016-12-05T21:37:38.541Z,0
2016-12-05T21:38:49.176Z,0
2016-12-05T21:39:59.612Z,0
2016-12-05T21:41:10.049Z,0
2016-12-05T21:42:20.484Z,0
2016-12-05T21:43:30.916Z,0
2016-12-05T21:44:41.842Z,0
2016-12-05T21:45:52.284Z,0
2016-12-05T21:47:02.727Z,0
2016-12-05T21:48:13.166Z,0
2016-12-05T21:49:24.098Z,0
2016-12-05T21:50:49.565Z,0
2016-12-05T21:51:59.997Z,0
2016-12-05T21:53:10.438Z,0
2016-12-05T21:54:20.895Z,0
2016-12-05T21:55:31.532Z,0
2016-12-05T21:56:41.968Z,0
2016-12-05T21:57:52.403Z,0
2016-12-05T21:59:02.837Z,0
2016-12-05T22:00:13.283Z,0
2016-12-05T22:01:23.730Z,0
2016-12-05T22:02:34.169Z,0
2016-12-05T22:03:44.604Z,0
2016-12-05T22:04:55.041Z,0
2016-12-05T22:06:05.969Z,0
2016-12-05T22:07:30.954Z,0
2016-12-05T22:08:55.940Z,0
2016-12-05T22:10:20.921Z,0
2016-12-05T22:11:31.357Z,0
2016-12-05T22:12:56.343Z,0
2016-12-05T22:14:06.795Z,0
2016-12-05T22:15:17.728Z,0
2016-12-05T22:16:28.168Z,0
2016-12-05T22:17:38.805Z,0
2016-12-05T22:18:49.732Z,0
2016-12-05T22:20:00.185Z,0
2016-12-05T22:21:10.621Z,0
2016-12-05T22:22:35.805Z,0
2016-12-05T22:23:46.247Z,0
2016-12-05T22:24:56.687Z,0
2016-12-05T22:26:07.132Z,0
2016-12-05T22:27:17.570Z,0
2016-12-05T22:28:28.207Z,0
2016-12-05T22:30:07.741Z,0
2016-12-05T22:31:18.183Z,0
2016-12-05T22:32:28.621Z,0
2016-12-05T22:33:39.066Z,0
2016-12-05T22:34:49.505Z,0
2016-12-05T22:35:59.959Z,0
2016-12-05T22:37:10.407Z,0
2016-12-05T22:38:21.336Z,0
2016-12-05T22:39:31.970Z,0
2016-12-05T22:40:42.924Z,0
2016-12-05T22:41:53.375Z,0
2016-12-05T22:43:03.813Z,0
2016-12-05T22:44:14.259Z,0
2016-12-05T22:45:24.716Z,0
2016-12-05T22:46:35.170Z,0
2016-12-05T22:47:45.613Z,0
2016-12-05T22:48:56.066Z,0
2016-12-05T22:50:06.510Z,0
2016-12-05T22:51:17.157Z,0
2016-12-05T22:52:27.605Z,0
2016-12-05T22:53:38.056Z,0
2016-12-05T22:54:48.500Z,0
2016-12-05T22:55:58.968Z,0
2016-12-05T22:57:10.104Z,0
2016-12-05T22:58:20.548Z,0
2016-12-05T22:59:31.014Z,0
2016-12-05T23:00:41.484Z,0
2016-12-05T23:01:51.974Z,0
2016-12-05T23:03:02.610Z,0
2016-12-05T23:04:13.064Z,0
2016-12-05T23:05:23.521Z,0
2016-12-05T23:06:33.976Z,0
2016-12-05T23:09:09.637Z,0
2016-12-05T23:10:34.643Z,0
2016-12-05T23:11:45.095Z,0
2016-12-05T23:12:55.552Z,0
2016-12-05T23:14:06.491Z,0
2016-12-05T23:15:16.950Z,0
2016-12-05T23:16:27.888Z,0
2016-12-05T23:17:38.340Z,0
2016-12-05T23:18:48.806Z,0
2016-12-05T23:20:13.800Z,0
2016-12-05T23:21:24.253Z,0
2016-12-05T23:22:34.706Z,0
2016-12-05T23:23:45.176Z,0
2016-12-05T23:24:56.209Z,0
2016-12-05T23:26:21.232Z,0
2016-12-05T23:27:31.701Z,0
2016-12-05T23:28:42.172Z,0
2016-12-05T23:29:52.650Z,0
2016-12-05T23:31:03.121Z,0
2016-12-05T23:32:13.573Z,0
2016-12-05T23:33:24.138Z,0
2016-12-05T23:34:34.728Z,0
2016-12-05T23:35:45.468Z,0
2016-12-05T23:36:56.020Z,0
2016-12-05T23:38:07.086Z,0
2016-12-05T23:39:17.631Z,0
2016-12-05T23:40:28.199Z,0
2016-12-05T23:41:38.771Z,0
2016-12-05T23:42:49.352Z,0
2016-12-05T23:43:59.908Z,0
2016-12-05T23:45:10.452Z,0
2016-12-05T23:46:21.004Z,0
2016-12-05T23:47:31.757Z,0
2016-12-05T23:48:56.822Z,0
2016-12-05T23:50:07.384Z,0
2016-12-05T23:51:17.953Z,0
2016-12-05T23:52:28.722Z,0
2016-12-05T23:53:39.303Z,0
2016-12-05T23:54:49.875Z,0
2016-12-05T23:56:00.421Z,0
2016-12-05T23:58:50.575Z,0
